Latest Coastal Weather Observations for Walpole North

IDW60701

Issued at 5:22 am WST Sunday 26 June 2016 (issued every 10 minutes, with the page automatically refreshed every 10 minutes)

About coastal observations | Map of coastal stations | Coastal observations for WA | Marine services | Other Formats
Station Details ID: 009998 Name: NORTH WALPOLE Lat: -34.95 Lon: 116.72 Height: 73.0 m
Data from the previous 72 hours. | See also: Recent months at Walpole North
Date/Time
WST
Temp
°C
Wind Pressure Rain since
9am
mm
Weather Cloud Vis
km
Sea
Height
m
Swell
Dir  Spd
kts
Gust
kts
hPa Trend Height
m
Period
s
Dir
26/05:00am 9.8 NW 8 11 1021.4 - 1.4 - - - - - - -
26/04:30am 9.4 WNW 8 12 1021.6 - 1.4 - - - - - - -
26/04:00am 9.8 NNW 7 9 1021.3 - 1.4 - - - - - - -
26/03:30am 9.5 NW 6 9 1021.8 - 1.4 - - - - - - -
26/03:00am 8.6 WNW 5 8 1022.0 - 1.0 Recent precip. - - - - - -
26/02:30am 9.0 NNW 2 5 1022.0 - 0.8 - - - - - - -
26/02:00am 9.4 N 3 9 1021.8 - 0.8 - - - - - - -
26/01:30am 9.4 NNW 9 11 1021.8 - 0.8 - - - - - - -
26/01:00am 8.3 WNW 6 7 1022.0 - 0.8 - - - - - - -
26/12:30am 9.5 NNW 7 10 1022.0 - 0.8 - - - - - - -
26/12:00am 9.5 NW 3 7 1022.0 - 0.8 - - - - - - -
 
Date/Time
WST
Temp
°C
Wind Pressure Rain since
9am
mm
Weather Cloud Vis
km
Sea
Height
m
Swell
Dir  Spd
kts
Gust
kts
hPa Trend Height
m
Period
s
Dir
25/11:30pm 9.5 NNW 9 13 1022.1 - 0.8 - - - - - - -
25/11:00pm 9.2 NW 9 11 1022.3 - 0.8 - - - - - - -
25/10:30pm 8.8 NNW 3 9 1022.2 - 0.8 - - - - - - -
25/10:00pm 7.7 SW 4 6 1022.4 - 0.8 - - - - - - -
25/09:30pm 8.5 CALM 0 4 1022.0 - 0.8 - - - - - - -
25/09:00pm 8.6 CALM 0 0 1022.2 - 0.8 - - - - - - -
25/08:30pm 8.8 CALM 0 0 1022.2 - 0.8 - - - - - - -
25/08:00pm 9.1 CALM 0 0 1022.0 - 0.8 - - - - - - -
25/07:30pm 10.0 CALM 0 0 1021.9 - 0.6 - - - - - - -
25/07:00pm 10.0 CALM 0 0 1021.9 - 0.4 - - - - - - -
25/06:30pm 10.1 CALM 0 0 1021.6 - 0.4 - - - - - - -
25/06:00pm 10.6 CALM 0 0 1021.4 - 0.4 Recent precip. - - - - - -
25/05:30pm 11.6 SW 4 9 1020.9 - 0.4 - - - - - - -
25/05:00pm 11.9 WNW 4 6 1020.5 - 0.2 - - - - - - -
25/04:30pm 12.7 WNW 4 6 1020.1 - 0.2 - - - - - - -
25/04:00pm 13.3 W 5 7 1020.0 - 0.2 - - - - - - -
25/03:30pm 12.3 W 9 13 1019.7 - 0.2 - - - - - - -
25/03:00pm 13.8 SW 7 15 1019.4 - 0.2 Recent precip. - - - - - -
25/02:30pm 14.1 WSW 10 17 1019.0 - 0.2 - - - - - - -
25/02:00pm 15.8 SW 7 11 1018.9 - 0.0 - - - - - - -
25/01:30pm 15.3 SW 9 14 1019.0 - 0.0 - - - - - - -
25/01:00pm 13.8 SW 8 11 1019.0 - 0.0 - - - - - - -
25/12:30pm 15.3 SW 8 14 1018.9 - 0.0 - - - - - - -
25/12:00pm 14.9 SW 9 14 1018.9 - 0.0 - - - - - - -
25/11:30am 14.2 WSW 7 10 1018.9 - 0.0 - - - - - - -
25/11:00am 14.2 SW 9 17 1019.0 - 0.0 - - - - - - -
25/10:30am 14.5 SW 6 10 1018.9 - 0.0 - - - - - - -
25/10:00am 13.7 SW 7 13 1018.8 - 0.0 - - - - - - -
25/09:30am 13.1 SW 8 14 1018.3 - 0.0 - - - - - - -
25/09:00am 12.0 WSW 4 7 1017.7 - 19.8 - - - - - - -
25/08:30am 10.8 WSW 1 6 1017.4 - 19.8 - - - - - - -
25/08:00am 10.4 SW 6 11 1017.1 - 19.8 - - - - - - -
25/07:30am 10.3 WSW 6 8 1016.5 - 19.8 - - - - - - -
25/07:00am 10.2 SW 7 11 1016.0 - 19.8 - - - - - - -
25/06:30am 10.4 WSW 5 9 1015.5 - 19.6 - - - - - - -
25/06:00am 10.6 SW 6 11 1015.0 - 19.6 Rain - - - - - -
25/05:30am 10.4 WSW 6 11 1014.4 - 19.2 - - - - - - -
25/05:00am 10.9 SW 9 15 1014.0 - 19.0 - - - - - - -
25/04:30am 11.3 SW 6 11 1013.6 - 18.2 - - - - - - -
25/04:00am 11.6 W 3 12 1013.3 - 16.0 - - - - - - -
25/03:30am 11.7 NW 12 21 1012.5 - 9.0 - - - - - - -
25/03:00am 11.5 NW 11 16 1012.6 - 2.4 Recent precip. - - - - - -
25/02:30am 11.2 SW 3 8 1012.5 - 2.0 - - - - - - -
25/02:00am 11.4 NW 10 15 1012.6 - 1.8 - - - - - - -
25/01:30am 11.5 NW 12 18 1012.9 - 1.8 - - - - - - -
25/01:15am 11.6 NW 15 25 1013.2 - 1.6 - - - - - - -
25/01:00am 11.5 NW 15 22 1013.1 - 0.8 - - - - - - -
25/12:30am 11.5 NW 9 14 1013.0 - 0.0 - - - - - - -
25/12:00am 11.1 NNW 9 13 1012.9 - 0.0 - - - - - - -
 
Date/Time
WST
Temp
°C
Wind Pressure Rain since
9am
mm
Weather Cloud Vis
km
Sea
Height
m
Swell
Dir  Spd
kts
Gust
kts
hPa Trend Height
m
Period
s
Dir
24/11:30pm 11.3 NNW 9 13 1012.9 - 0.0 - - - - - - -
24/11:00pm 11.3 NNW 9 14 1013.2 - 0.0 - - - - - - -
24/10:30pm 11.4 NNW 9 15 1013.4 - 0.0 - - - - - - -
24/10:00pm 11.4 NNW 10 16 1013.6 - 0.0 - - - - - - -
24/09:30pm 11.3 NNW 8 16 1013.7 - 0.0 - - - - - - -
24/09:00pm 11.6 NNW 8 14 1013.9 - 0.0 - - - - - - -
24/08:30pm 12.2 NNW 9 14 1014.1 - 0.0 - - - - - - -
24/08:00pm 12.1 NNW 8 13 1014.3 - 0.0 - - - - - - -
24/07:30pm 11.9 NNW 9 15 1014.5 - 0.0 - - - - - - -
24/07:00pm 12.0 NNW 9 14 1014.4 - 0.0 - - - - - - -
24/06:30pm 12.2 NNW 6 10 1014.2 - 0.0 - - - - - - -
24/06:00pm 12.6 NNW 7 11 1014.1 - 0.0 - - - - - - -
24/05:30pm 12.6 NNW 5 9 1014.2 - 0.0 - - - - - - -
24/05:00pm 13.1 NNW 6 9 1014.2 - 0.0 - - - - - - -
24/04:30pm 13.9 NW 10 14 1014.1 - 0.0 - - - - - - -
24/04:00pm 13.7 NW 9 16 1014.2 - 0.0 - - - - - - -
24/03:30pm 13.2 NW 11 15 1014.3 - 0.0 - - - - - - -
24/03:00pm 13.3 NW 14 21 1014.4 - 0.0 - - - - - - -
24/02:30pm 14.1 NW 10 16 1014.4 - 0.0 - - - - - - -
24/02:00pm 14.5 NW 12 17 1014.5 - 0.0 - - - - - - -
24/01:30pm 15.0 NNW 10 16 1014.8 - 0.0 - - - - - - -
24/01:00pm 15.0 NNW 8 15 1015.4 - 0.0 - - - - - - -
24/12:30pm 13.7 NW 9 15 1015.9 - 0.0 - - - - - - -
24/12:00pm 13.8 NNW 10 15 1016.4 - 0.0 - - - - - - -
24/11:30am 13.3 NNW 11 18 1016.9 - 0.0 - - - - - - -
24/11:00am 13.3 NNW 8 14 1017.4 - 0.0 - - - - - - -
24/10:30am 12.3 N 8 14 1017.8 - 0.0 - - - - - - -
24/10:00am 11.8 N 7 13 1018.2 - 0.0 - - - - - - -
24/09:30am 12.0 N 7 12 1018.4 - 0.0 - - - - - - -
24/09:00am 10.8 N 5 9 1018.2 - 0.0 - - - - - - -
24/08:30am 10.2 NNE 7 10 1018.2 - 0.0 - - - - - - -
24/08:00am 10.2 N 5 8 1018.1 - 0.0 - - - - - - -
24/07:30am 8.2 N 4 7 1018.2 - 0.0 - - - - - - -
24/07:00am 8.4 N 4 6 1018.0 - 0.0 - - - - - - -
24/06:30am 8.7 N 6 9 1018.1 - 0.0 - - - - - - -
24/06:00am 8.7 NNE 6 10 1018.1 - 0.0 - - - - - - -
24/05:30am 8.8 N 5 7 1018.3 - 0.0 - - - - - - -
24/05:00am 9.3 NNW 5 9 1018.6 - 0.0 - - - - - - -
24/04:30am 8.9 N 4 6 1018.6 - 0.0 - - - - - - -
24/04:00am 9.3 NNW 5 8 1018.7 - 0.0 - - - - - - -
24/03:30am 9.7 NNW 5 8 1019.0 - 0.0 - - - - - - -
24/03:00am 8.9 NNW 4 6 1019.3 - 0.0 - - - - - - -
24/02:30am 8.5 NNW 4 7 1019.4 - 0.0 - - - - - - -
24/02:00am 7.0 CALM 0 0 1019.6 - 0.0 - - - - - - -
24/01:30am 7.5 CALM 0 0 1019.7 - 0.0 - - - - - - -
24/01:00am 7.8 CALM 0 0 1020.1 - 0.0 - - - - - - -
24/12:30am 8.8 CALM 0 0 1020.3 - 0.0 - - - - - - -
24/12:00am 9.4 NNW 1 5 1020.4 - 0.0 - - - - - - -
 
Date/Time
WST
Temp
°C
Wind Pressure Rain since
9am
mm
Weather Cloud Vis
km
Sea
Height
m
Swell
Dir  Spd
kts
Gust
kts
hPa Trend Height
m
Period
s
Dir
23/11:30pm 9.5 NNW 8 11 1020.7 - 0.0 - - - - - - -
23/11:00pm 8.7 CALM 0 0 1021.0 - 0.0 - - - - - - -
23/10:30pm 8.9 CALM 0 0 1021.1 - 0.0 - - - - - - -
23/10:00pm 9.4 CALM 0 0 1021.3 - 0.0 - - - - - - -
23/09:30pm 10.1 CALM 0 0 1021.2 - 0.0 - - - - - - -
23/09:00pm 10.2 NNW 7 9 1021.2 - 0.0 - - - - - - -
23/08:30pm 9.7 NW 7 9 1021.1 - 0.0 - - - - - - -
23/08:00pm 10.0 NNW 8 10 1021.0 - 0.0 - - - - - - -
23/07:30pm 10.1 NNW 6 7 1021.0 - 0.0 - - - - - - -
23/07:00pm 9.6 WNW 4 8 1020.7 - 0.0 - - - - - - -
23/06:30pm 9.3 CALM 0 0 1020.3 - 0.0 - - - - - - -
23/06:00pm 10.3 CALM 0 0 1020.2 - 0.0 - - - - - - -
23/05:30pm 10.6 NNW 5 7 1020.2 - 0.0 - - - - - - -
23/05:00pm 11.1 W 4 6 1020.1 - 0.0 - - - - - - -
23/04:30pm 11.7 SW 4 8 1019.9 - 0.0 - - - - - - -
23/04:00pm 12.2 SSW 4 6 1019.8 - 0.0 - - - - - - -
23/03:30pm 12.4 SW 4 5 1019.6 - 0.0 - - - - - - -
23/03:00pm 12.2 SSW 5 7 1019.5 - 0.0 - - - - - - -
23/02:30pm 12.5 SSW 7 11 1019.5 - 0.0 - - - - - - -
23/02:00pm 13.3 WSW 4 5 1019.5 - 0.0 - - - - - - -
23/01:30pm 12.9 SW 5 7 1019.7 - 0.0 - - - - - - -
23/01:00pm 13.1 WSW 6 9 1019.9 - 0.0 - - - - - - -
23/12:30pm 12.9 SW 6 8 1020.1 - 0.0 - - - - - - -
23/12:00pm 12.5 SSW 7 12 1020.3 - 0.0 - - - - - - -
23/11:30am 12.3 SW 6 9 1020.5 - 0.0 - - - - - - -
23/11:00am 12.8 SW 7 10 1020.4 - 0.0 - - - - - - -
23/10:30am 12.6 SW 9 15 1020.4 - 0.0 - - - - - - -
23/10:00am 12.0 SSW 9 15 1020.4 - 0.0 - - - - - - -
23/09:30am 11.8 SSW 9 15 1020.0 - 0.0 - - - - - - -
23/09:00am 10.5 SW 5 8 1019.5 - 11.4 - - - - - - -
23/08:30am 10.3 SW 7 13 1019.3 - 11.4 - - - - - - -
23/08:00am 9.3 SW 4 7 1019.0 - 11.4 - - - - - - -
23/07:30am 8.8 SW 5 9 1018.6 - 11.4 - - - - - - -
23/07:00am 9.4 WSW 9 15 1018.4 - 11.4 - - - - - - -
23/06:30am 9.4 SW 7 12 1018.0 - 11.0 - - - - - - -
23/06:00am 9.3 SW 7 14 1017.7 - 11.0 - - - - - - -
23/05:30am 9.1 WSW 5 8 1017.5 - 11.0 - - - - - - -

Other Formats:

Comma delimited format used in spreadsheet applications
http://www.bom.gov.au/fwo/IDW60701/IDW60701.95647.axf

JavaScript Object Notation format (JSON) in row-major order
http://www.bom.gov.au/fwo/IDW60701/IDW60701.95647.json